sensor_id;sensor_type;location;lat;lon;timestamp;temperature;humidity
36670;DHT22;22662;47.412;9.742;2022-11-15T00:00:43;8.60;99.90
36670;DHT22;22662;47.412;9.742;2022-11-15T00:03:09;8.50;99.90
36670;DHT22;22662;47.412;9.742;2022-11-15T00:05:35;8.50;99.90
36670;DHT22;22662;47.412;9.742;2022-11-15T00:08:01;8.60;99.90
36670;DHT22;22662;47.412;9.742;2022-11-15T00:10:27;8.60;99.90
36670;DHT22;22662;47.412;9.742;2022-11-15T00:12:52;8.60;99.90
36670;DHT22;22662;47.412;9.742;2022-11-15T00:15:18;8.50;99.90
36670;DHT22;22662;47.412;9.742;2022-11-15T00:17:43;8.50;99.90
36670;DHT22;22662;47.412;9.742;2022-11-15T00:20:09;8.50;99.90
36670;DHT22;22662;47.412;9.742;2022-11-15T00:22:35;8.60;99.90
36670;DHT22;22662;47.412;9.742;2022-11-15T00:25:00;8.40;99.90
36670;DHT22;22662;47.412;9.742;2022-11-15T00:27:26;8.40;99.90
36670;DHT22;22662;47.412;9.742;2022-11-15T00:29:52;8.30;99.90
36670;DHT22;22662;47.412;9.742;2022-11-15T00:32:18;8.30;99.90
36670;DHT22;22662;47.412;9.742;2022-11-15T00:34:44;8.30;99.90
36670;DHT22;22662;47.412;9.742;2022-11-15T00:37:09;8.20;99.90
36670;DHT22;22662;47.412;9.742;2022-11-15T00:39:35;8.10;99.90
36670;DHT22;22662;47.412;9.742;2022-11-15T00:42:00;8.10;99.90
36670;DHT22;22662;47.412;9.742;2022-11-15T00:44:26;8.20;99.90
36670;DHT22;22662;47.412;9.742;2022-11-15T00:46:52;8.20;99.90
36670;DHT22;22662;47.412;9.742;2022-11-15T00:49:17;8.20;99.90
36670;DHT22;22662;47.412;9.742;2022-11-15T00:51:43;8.10;99.90
36670;DHT22;22662;47.412;9.742;2022-11-15T00:54:08;8.10;99.90
36670;DHT22;22662;47.412;9.742;2022-11-15T00:56:35;8.00;99.90
36670;DHT22;22662;47.412;9.742;2022-11-15T00:59:01;8.00;99.90
36670;DHT22;22662;47.412;9.742;2022-11-15T01:01:26;8.00;99.90
36670;DHT22;22662;47.412;9.742;2022-11-15T01:03:52;8.00;99.90
36670;DHT22;22662;47.412;9.742;2022-11-15T01:06:17;7.90;99.90
36670;DHT22;22662;47.412;9.742;2022-11-15T01:08:43;8.00;99.90
36670;DHT22;22662;47.412;9.742;2022-11-15T01:11:10;8.00;99.90
36670;DHT22;22662;47.412;9.742;2022-11-15T01:13:36;8.00;99.90
36670;DHT22;22662;47.412;9.742;2022-11-15T01:16:06;7.90;99.90
36670;DHT22;22662;47.412;9.742;2022-11-15T01:18:31;8.00;99.90
36670;DHT22;22662;47.412;9.742;2022-11-15T01:20:57;8.00;99.90
36670;DHT22;22662;47.412;9.742;2022-11-15T01:23:22;8.00;99.90
36670;DHT22;22662;47.412;9.742;2022-11-15T01:25:48;8.00;99.90
36670;DHT22;22662;47.412;9.742;2022-11-15T01:28:14;8.00;99.90
36670;DHT22;22662;47.412;9.742;2022-11-15T01:30:39;8.00;99.90
36670;DHT22;22662;47.412;9.742;2022-11-15T01:33:05;7.90;99.90
36670;DHT22;22662;47.412;9.742;2022-11-15T01:35:31;7.90;99.90
36670;DHT22;22662;47.412;9.742;2022-11-15T01:37:56;7.90;99.90
36670;DHT22;22662;47.412;9.742;2022-11-15T01:40:22;7.90;99.90
36670;DHT22;22662;47.412;9.742;2022-11-15T01:42:48;7.80;99.90
36670;DHT22;22662;47.412;9.742;2022-11-15T01:45:15;7.80;99.90
36670;DHT22;22662;47.412;9.742;2022-11-15T01:47:42;7.80;99.90
36670;DHT22;22662;47.412;9.742;2022-11-15T01:50:13;7.80;99.90
36670;DHT22;22662;47.412;9.742;2022-11-15T01:52:39;7.80;99.90
36670;DHT22;22662;47.412;9.742;2022-11-15T01:57:37;7.60;99.90
36670;DHT22;22662;47.412;9.742;2022-11-15T02:00:05;7.60;99.90
36670;DHT22;22662;47.412;9.742;2022-11-15T02:02:31;7.60;99.90
36670;DHT22;22662;47.412;9.742;2022-11-15T02:04:57;7.70;99.90
36670;DHT22;22662;47.412;9.742;2022-11-15T02:07:23;7.60;99.90
36670;DHT22;22662;47.412;9.742;2022-11-15T02:09:48;7.70;99.90
36670;DHT22;22662;47.412;9.742;2022-11-15T02:12:15;7.70;99.90
36670;DHT22;22662;47.412;9.742;2022-11-15T02:14:42;7.80;99.90
36670;DHT22;22662;47.412;9.742;2022-11-15T02:19:54;7.90;99.90
36670;DHT22;22662;47.412;9.742;2022-11-15T02:22:39;7.60;99.90
36670;DHT22;22662;47.412;9.742;2022-11-15T02:38:12;7.10;99.90
36670;DHT22;22662;47.412;9.742;2022-11-15T02:40:53;7.20;99.90
36670;DHT22;22662;47.412;9.742;2022-11-15T02:43:36;7.20;99.90
36670;DHT22;22662;47.412;9.742;2022-11-15T02:49:11;7.30;99.90
36670;DHT22;22662;47.412;9.742;2022-11-15T02:51:37;7.10;99.90
36670;DHT22;22662;47.412;9.742;2022-11-15T02:54:03;6.90;99.90
36670;DHT22;22662;47.412;9.742;2022-11-15T02:56:29;6.80;99.90
36670;DHT22;22662;47.412;9.742;2022-11-15T02:58:57;6.70;99.90
36670;DHT22;22662;47.412;9.742;2022-11-15T03:09:13;6.50;99.90
36670;DHT22;22662;47.412;9.742;2022-11-15T03:11:45;6.50;99.90
36670;DHT22;22662;47.412;9.742;2022-11-15T03:14:30;6.50;99.90
36670;DHT22;22662;47.412;9.742;2022-11-15T03:17:01;6.50;99.90
36670;DHT22;22662;47.412;9.742;2022-11-15T03:21:56;6.40;99.90
36670;DHT22;22662;47.412;9.742;2022-11-15T03:24:23;6.40;99.90
36670;DHT22;22662;47.412;9.742;2022-11-15T03:26:50;6.40;99.90
36670;DHT22;22662;47.412;9.742;2022-11-15T03:29:17;6.30;99.90
36670;DHT22;22662;47.412;9.742;2022-11-15T03:31:46;6.20;99.90
36670;DHT22;22662;47.412;9.742;2022-11-15T03:34:19;6.20;99.90
36670;DHT22;22662;47.412;9.742;2022-11-15T03:36:45;6.20;99.90
36670;DHT22;22662;47.412;9.742;2022-11-15T03:39:11;6.20;99.90
36670;DHT22;22662;47.412;9.742;2022-11-15T03:46:53;6.00;99.90
36670;DHT22;22662;47.412;9.742;2022-11-15T03:49:25;6.00;99.90
36670;DHT22;22662;47.412;9.742;2022-11-15T03:51:53;6.00;99.90
36670;DHT22;22662;47.412;9.742;2022-11-15T03:54:18;6.00;99.90
36670;DHT22;22662;47.412;9.742;2022-11-15T03:56:44;6.00;99.90
36670;DHT22;22662;47.412;9.742;2022-11-15T03:59:09;5.90;99.90
36670;DHT22;22662;47.412;9.742;2022-11-15T04:01:35;5.90;99.90
36670;DHT22;22662;47.412;9.742;2022-11-15T04:04:00;5.90;99.90
36670;DHT22;22662;47.412;9.742;2022-11-15T04:06:26;5.80;99.90
36670;DHT22;22662;47.412;9.742;2022-11-15T04:08:52;5.80;99.90
36670;DHT22;22662;47.412;9.742;2022-11-15T04:11:20;5.80;99.90
36670;DHT22;22662;47.412;9.742;2022-11-15T04:13:46;5.80;99.90
36670;DHT22;22662;47.412;9.742;2022-11-15T04:16:11;5.70;99.90
36670;DHT22;22662;47.412;9.742;2022-11-15T04:18:37;5.70;99.90
36670;DHT22;22662;47.412;9.742;2022-11-15T04:21:03;5.70;99.90
36670;DHT22;22662;47.412;9.742;2022-11-15T04:23:47;5.60;99.90
36670;DHT22;22662;47.412;9.742;2022-11-15T04:26:31;5.70;99.90
36670;DHT22;22662;47.412;9.742;2022-11-15T04:28:57;5.70;99.90
36670;DHT22;22662;47.412;9.742;2022-11-15T04:31:41;5.70;99.90
36670;DHT22;22662;47.412;9.742;2022-11-15T04:34:06;5.70;99.90
36670;DHT22;22662;47.412;9.742;2022-11-15T04:36:32;5.80;99.90
36670;DHT22;22662;47.412;9.742;2022-11-15T04:39:16;5.90;99.90
36670;DHT22;22662;47.412;9.742;2022-11-15T04:41:41;5.90;99.90
36670;DHT22;22662;47.412;9.742;2022-11-15T04:44:07;5.80;99.90
36670;DHT22;22662;47.412;9.742;2022-11-15T04:46:33;5.80;99.90
36670;DHT22;22662;47.412;9.742;2022-11-15T04:48:58;5.90;99.90
36670;DHT22;22662;47.412;9.742;2022-11-15T04:51:24;5.90;99.90
36670;DHT22;22662;47.412;9.742;2022-11-15T04:53:49;5.90;99.90
36670;DHT22;22662;47.412;9.742;2022-11-15T04:56:15;5.90;99.90
36670;DHT22;22662;47.412;9.742;2022-11-15T04:58:40;5.90;99.90
36670;DHT22;22662;47.412;9.742;2022-11-15T05:01:13;5.90;99.90
36670;DHT22;22662;47.412;9.742;2022-11-15T05:37:49;6.00;99.90
36670;DHT22;22662;47.412;9.742;2022-11-15T05:40:15;5.90;99.90
36670;DHT22;22662;47.412;9.742;2022-11-15T05:42:41;6.00;99.90
36670;DHT22;22662;47.412;9.742;2022-11-15T05:45:06;6.00;99.90
36670;DHT22;22662;47.412;9.742;2022-11-15T05:47:33;5.90;99.90
36670;DHT22;22662;47.412;9.742;2022-11-15T05:50:00;5.90;99.90
36670;DHT22;22662;47.412;9.742;2022-11-15T05:52:28;5.80;99.90
36670;DHT22;22662;47.412;9.742;2022-11-15T05:54:55;5.80;99.90
36670;DHT22;22662;47.412;9.742;2022-11-15T05:57:21;5.80;99.90
36670;DHT22;22662;47.412;9.742;2022-11-15T05:59:47;5.80;99.90
36670;DHT22;22662;47.412;9.742;2022-11-15T06:02:12;5.80;99.90
36670;DHT22;22662;47.412;9.742;2022-11-15T06:04:38;5.80;99.90
36670;DHT22;22662;47.412;9.742;2022-11-15T06:07:04;5.90;99.90
36670;DHT22;22662;47.412;9.742;2022-11-15T06:09:29;5.80;99.90
36670;DHT22;22662;47.412;9.742;2022-11-15T06:11:55;5.80;99.90
36670;DHT22;22662;47.412;9.742;2022-11-15T06:14:20;5.80;99.90
36670;DHT22;22662;47.412;9.742;2022-11-15T06:16:46;5.80;99.90
36670;DHT22;22662;47.412;9.742;2022-11-15T06:19:11;5.80;99.90
36670;DHT22;22662;47.412;9.742;2022-11-15T06:21:37;5.80;99.90
36670;DHT22;22662;47.412;9.742;2022-11-15T06:24:02;5.80;99.90
36670;DHT22;22662;47.412;9.742;2022-11-15T06:26:28;5.80;99.90
36670;DHT22;22662;47.412;9.742;2022-11-15T06:28:54;5.80;99.90
36670;DHT22;22662;47.412;9.742;2022-11-15T06:31:19;5.80;99.90
36670;DHT22;22662;47.412;9.742;2022-11-15T06:33:46;5.70;99.90
36670;DHT22;22662;47.412;9.742;2022-11-15T06:36:12;5.70;99.90
36670;DHT22;22662;47.412;9.742;2022-11-15T06:38:42;5.70;99.90
36670;DHT22;22662;47.412;9.742;2022-11-15T06:41:09;5.80;99.90
36670;DHT22;22662;47.412;9.742;2022-11-15T06:43:35;5.80;99.90
36670;DHT22;22662;47.412;9.742;2022-11-15T06:46:01;5.90;99.90
36670;DHT22;22662;47.412;9.742;2022-11-15T06:48:27;6.00;99.90
36670;DHT22;22662;47.412;9.742;2022-11-15T06:50:53;6.00;99.90
36670;DHT22;22662;47.412;9.742;2022-11-15T06:53:19;6.00;99.90
36670;DHT22;22662;47.412;9.742;2022-11-15T06:55:45;6.10;99.90
36670;DHT22;22662;47.412;9.742;2022-11-15T06:58:10;6.10;99.90
36670;DHT22;22662;47.412;9.742;2022-11-15T07:00:36;6.10;99.90
36670;DHT22;22662;47.412;9.742;2022-11-15T07:03:01;6.10;99.90
36670;DHT22;22662;47.412;9.742;2022-11-15T07:05:27;6.20;99.90
36670;DHT22;22662;47.412;9.742;2022-11-15T07:07:53;6.10;99.90
36670;DHT22;22662;47.412;9.742;2022-11-15T07:10:20;6.30;99.90
36670;DHT22;22662;47.412;9.742;2022-11-15T07:12:49;6.30;99.90
36670;DHT22;22662;47.412;9.742;2022-11-15T07:15:15;6.30;99.90
36670;DHT22;22662;47.412;9.742;2022-11-15T07:17:41;6.30;99.90
36670;DHT22;22662;47.412;9.742;2022-11-15T07:20:06;6.30;99.90
36670;DHT22;22662;47.412;9.742;2022-11-15T07:22:32;6.40;99.90
36670;DHT22;22662;47.412;9.742;2022-11-15T07:24:58;6.40;99.90
36670;DHT22;22662;47.412;9.742;2022-11-15T07:27:23;6.50;99.90
36670;DHT22;22662;47.412;9.742;2022-11-15T07:29:49;6.60;99.90
36670;DHT22;22662;47.412;9.742;2022-11-15T07:32:15;6.70;99.90
36670;DHT22;22662;47.412;9.742;2022-11-15T07:34:40;6.80;99.90
36670;DHT22;22662;47.412;9.742;2022-11-15T07:37:06;6.90;99.90
36670;DHT22;22662;47.412;9.742;2022-11-15T07:39:31;6.90;99.90
36670;DHT22;22662;47.412;9.742;2022-11-15T07:41:57;6.90;99.90
36670;DHT22;22662;47.412;9.742;2022-11-15T07:44:41;6.90;99.90
36670;DHT22;22662;47.412;9.742;2022-11-15T07:47:06;6.90;99.90
36670;DHT22;22662;47.412;9.742;2022-11-15T07:49:32;7.10;99.90
36670;DHT22;22662;47.412;9.742;2022-11-15T07:51:57;7.10;99.90
36670;DHT22;22662;47.412;9.742;2022-11-15T07:54:23;7.00;99.90
36670;DHT22;22662;47.412;9.742;2022-11-15T07:56:49;7.00;99.90
36670;DHT22;22662;47.412;9.742;2022-11-15T07:59:14;7.10;99.90
36670;DHT22;22662;47.412;9.742;2022-11-15T08:01:40;7.10;99.90
36670;DHT22;22662;47.412;9.742;2022-11-15T08:04:05;7.10;99.90
36670;DHT22;22662;47.412;9.742;2022-11-15T08:06:31;7.20;99.90
36670;DHT22;22662;47.412;9.742;2022-11-15T08:08:56;7.30;99.90
36670;DHT22;22662;47.412;9.742;2022-11-15T08:11:22;7.40;99.90
36670;DHT22;22662;47.412;9.742;2022-11-15T08:13:47;7.50;99.90
36670;DHT22;22662;47.412;9.742;2022-11-15T08:16:13;7.70;99.90
36670;DHT22;22662;47.412;9.742;2022-11-15T08:18:39;7.90;99.90
36670;DHT22;22662;47.412;9.742;2022-11-15T08:21:04;8.00;99.90
36670;DHT22;22662;47.412;9.742;2022-11-15T08:23:30;8.10;99.90
36670;DHT22;22662;47.412;9.742;2022-11-15T08:25:59;8.10;99.90
36670;DHT22;22662;47.412;9.742;2022-11-15T08:28:26;8.00;99.90
36670;DHT22;22662;47.412;9.742;2022-11-15T08:30:51;8.00;99.90
36670;DHT22;22662;47.412;9.742;2022-11-15T08:33:17;8.20;99.90
36670;DHT22;22662;47.412;9.742;2022-11-15T08:35:43;8.30;99.90
36670;DHT22;22662;47.412;9.742;2022-11-15T08:38:08;8.50;99.90
36670;DHT22;22662;47.412;9.742;2022-11-15T08:40:34;8.50;99.90
36670;DHT22;22662;47.412;9.742;2022-11-15T08:43:00;8.50;99.90
36670;DHT22;22662;47.412;9.742;2022-11-15T08:45:28;8.60;99.90
36670;DHT22;22662;47.412;9.742;2022-11-15T08:47:54;8.70;99.90
36670;DHT22;22662;47.412;9.742;2022-11-15T08:50:20;8.70;99.90
36670;DHT22;22662;47.412;9.742;2022-11-15T08:52:45;8.70;99.90
36670;DHT22;22662;47.412;9.742;2022-11-15T08:55:11;8.70;99.90
36670;DHT22;22662;47.412;9.742;2022-11-15T08:57:36;8.70;99.90
36670;DHT22;22662;47.412;9.742;2022-11-15T09:00:02;8.80;99.90
36670;DHT22;22662;47.412;9.742;2022-11-15T09:02:29;8.90;99.90
36670;DHT22;22662;47.412;9.742;2022-11-15T09:04:54;8.90;99.90
36670;DHT22;22662;47.412;9.742;2022-11-15T09:07:20;8.90;99.90
36670;DHT22;22662;47.412;9.742;2022-11-15T09:09:45;9.00;99.90
36670;DHT22;22662;47.412;9.742;2022-11-15T09:12:11;9.10;99.90
36670;DHT22;22662;47.412;9.742;2022-11-15T09:14:36;9.20;99.90
36670;DHT22;22662;47.412;9.742;2022-11-15T09:17:02;9.30;99.90
36670;DHT22;22662;47.412;9.742;2022-11-15T09:19:28;9.40;99.90
36670;DHT22;22662;47.412;9.742;2022-11-15T09:21:53;9.40;99.90
36670;DHT22;22662;47.412;9.742;2022-11-15T09:24:19;9.60;99.90
36670;DHT22;22662;47.412;9.742;2022-11-15T09:26:45;9.60;99.90
36670;DHT22;22662;47.412;9.742;2022-11-15T09:29:10;9.70;99.90
36670;DHT22;22662;47.412;9.742;2022-11-15T09:31:36;9.70;99.90
36670;DHT22;22662;47.412;9.742;2022-11-15T09:34:02;9.60;99.90
36670;DHT22;22662;47.412;9.742;2022-11-15T09:36:27;9.80;99.90
36670;DHT22;22662;47.412;9.742;2022-11-15T09:38:53;9.80;99.90
36670;DHT22;22662;47.412;9.742;2022-11-15T09:48:54;9.80;99.90
36670;DHT22;22662;47.412;9.742;2022-11-15T09:51:34;9.80;99.90
36670;DHT22;22662;47.412;9.742;2022-11-15T09:56:35;10.00;99.90
36670;DHT22;22662;47.412;9.742;2022-11-15T10:03:58;10.10;99.90
36670;DHT22;22662;47.412;9.742;2022-11-15T10:06:25;10.10;99.90
36670;DHT22;22662;47.412;9.742;2022-11-15T10:08:59;10.20;99.90
36670;DHT22;22662;47.412;9.742;2022-11-15T10:11:30;10.10;99.90
36670;DHT22;22662;47.412;9.742;2022-11-15T10:13:58;10.20;99.90
36670;DHT22;22662;47.412;9.742;2022-11-15T10:24:07;10.40;99.90
36670;DHT22;22662;47.412;9.742;2022-11-15T10:26:35;10.50;99.90
36670;DHT22;22662;47.412;9.742;2022-11-15T10:29:00;10.50;99.90
36670;DHT22;22662;47.412;9.742;2022-11-15T10:31:27;10.50;99.90
36670;DHT22;22662;47.412;9.742;2022-11-15T10:33:59;10.60;99.90
36670;DHT22;22662;47.412;9.742;2022-11-15T10:36:29;10.70;99.90
36670;DHT22;22662;47.412;9.742;2022-11-15T10:38:55;10.80;99.90
36670;DHT22;22662;47.412;9.742;2022-11-15T10:44:01;10.60;99.90
36670;DHT22;22662;47.412;9.742;2022-11-15T10:46:27;10.70;99.90
36670;DHT22;22662;47.412;9.742;2022-11-15T10:48:53;10.60;99.90
36670;DHT22;22662;47.412;9.742;2022-11-15T10:51:19;10.80;99.90
36670;DHT22;22662;47.412;9.742;2022-11-15T10:53:46;10.70;99.90
36670;DHT22;22662;47.412;9.742;2022-11-15T10:56:12;10.60;99.90
36670;DHT22;22662;47.412;9.742;2022-11-15T10:58:41;10.60;99.90
36670;DHT22;22662;47.412;9.742;2022-11-15T11:01:11;10.40;99.90
36670;DHT22;22662;47.412;9.742;2022-11-15T11:03:38;10.50;99.90
36670;DHT22;22662;47.412;9.742;2022-11-15T11:08:29;10.80;99.90
36670;DHT22;22662;47.412;9.742;2022-11-15T11:10:56;11.10;99.90
36670;DHT22;22662;47.412;9.742;2022-11-15T11:13:26;11.10;99.90
36670;DHT22;22662;47.412;9.742;2022-11-15T11:15:58;11.50;99.90
36670;DHT22;22662;47.412;9.742;2022-11-15T11:18:26;11.90;99.90
36670;DHT22;22662;47.412;9.742;2022-11-15T11:21:03;12.10;99.90
36670;DHT22;22662;47.412;9.742;2022-11-15T11:23:42;12.30;99.90
36670;DHT22;22662;47.412;9.742;2022-11-15T11:31:30;12.10;99.90
36670;DHT22;22662;47.412;9.742;2022-11-15T11:49:19;11.90;99.90
36670;DHT22;22662;47.412;9.742;2022-11-15T11:54:42;11.80;99.90
36670;DHT22;22662;47.412;9.742;2022-11-15T11:57:22;11.80;99.90
36670;DHT22;22662;47.412;9.742;2022-11-15T11:59:56;11.80;99.90
36670;DHT22;22662;47.412;9.742;2022-11-15T12:02:31;11.70;99.90
36670;DHT22;22662;47.412;9.742;2022-11-15T12:07:43;11.60;99.90
36670;DHT22;22662;47.412;9.742;2022-11-15T12:10:54;11.70;99.90
36670;DHT22;22662;47.412;9.742;2022-11-15T12:13:04;11.70;99.90
36670;DHT22;22662;47.412;9.742;2022-11-15T12:15:32;11.40;99.90
36670;DHT22;22662;47.412;9.742;2022-11-15T12:18:00;11.30;99.90
36670;DHT22;22662;47.412;9.742;2022-11-15T12:20:28;11.30;99.90
36670;DHT22;22662;47.412;9.742;2022-11-15T12:23:37;11.40;99.90
36670;DHT22;22662;47.412;9.742;2022-11-15T12:25:54;11.40;99.90
36670;DHT22;22662;47.412;9.742;2022-11-15T12:28:25;11.50;99.90
36670;DHT22;22662;47.412;9.742;2022-11-15T12:31:03;11.40;99.90
36670;DHT22;22662;47.412;9.742;2022-11-15T12:33:37;11.40;99.90
36670;DHT22;22662;47.412;9.742;2022-11-15T12:36:04;11.20;99.90
36670;DHT22;22662;47.412;9.742;2022-11-15T12:41:15;11.00;99.90
36670;DHT22;22662;47.412;9.742;2022-11-15T12:43:42;10.90;99.90
36670;DHT22;22662;47.412;9.742;2022-11-15T12:48:54;10.70;99.90
36670;DHT22;22662;47.412;9.742;2022-11-15T12:51:21;10.80;99.90
36670;DHT22;22662;47.412;9.742;2022-11-15T12:53:47;11.00;99.90
36670;DHT22;22662;47.412;9.742;2022-11-15T12:58:43;11.00;99.90
36670;DHT22;22662;47.412;9.742;2022-11-15T13:01:09;11.00;99.90
36670;DHT22;22662;47.412;9.742;2022-11-15T13:03:35;11.00;99.90
36670;DHT22;22662;47.412;9.742;2022-11-15T13:06:36;11.10;99.90
36670;DHT22;22662;47.412;9.742;2022-11-15T13:09:03;11.00;99.90
36670;DHT22;22662;47.412;9.742;2022-11-15T13:11:42;11.00;99.90
36670;DHT22;22662;47.412;9.742;2022-11-15T13:16:58;11.10;99.90
36670;DHT22;22662;47.412;9.742;2022-11-15T13:19:24;11.10;99.90
36670;DHT22;22662;47.412;9.742;2022-11-15T13:21:50;11.20;99.90
36670;DHT22;22662;47.412;9.742;2022-11-15T13:24:37;11.20;99.90
36670;DHT22;22662;47.412;9.742;2022-11-15T13:27:09;11.30;99.90
36670;DHT22;22662;47.412;9.742;2022-11-15T13:29:36;11.40;99.90
36670;DHT22;22662;47.412;9.742;2022-11-15T13:32:01;11.30;99.90
36670;DHT22;22662;47.412;9.742;2022-11-15T13:34:30;11.40;99.90
36670;DHT22;22662;47.412;9.742;2022-11-15T13:36:58;11.50;99.90
36670;DHT22;22662;47.412;9.742;2022-11-15T13:39:31;11.50;99.90
36670;DHT22;22662;47.412;9.742;2022-11-15T13:41:57;11.50;99.90
36670;DHT22;22662;47.412;9.742;2022-11-15T13:44:30;11.60;99.90
36670;DHT22;22662;47.412;9.742;2022-11-15T13:49:29;11.80;99.90
36670;DHT22;22662;47.412;9.742;2022-11-15T13:51:54;12.00;99.90
36670;DHT22;22662;47.412;9.742;2022-11-15T13:54:24;12.10;99.90
36670;DHT22;22662;47.412;9.742;2022-11-15T13:56:53;12.20;99.90
36670;DHT22;22662;47.412;9.742;2022-11-15T13:59:28;12.20;99.90
36670;DHT22;22662;47.412;9.742;2022-11-15T14:01:55;12.10;99.90
36670;DHT22;22662;47.412;9.742;2022-11-15T14:04:22;12.20;99.90
36670;DHT22;22662;47.412;9.742;2022-11-15T14:06:49;12.10;99.90
36670;DHT22;22662;47.412;9.742;2022-11-15T14:11:54;12.00;99.90
36670;DHT22;22662;47.412;9.742;2022-11-15T14:14:21;12.00;99.90
36670;DHT22;22662;47.412;9.742;2022-11-15T14:17:32;11.90;99.90
36670;DHT22;22662;47.412;9.742;2022-11-15T14:19:39;11.50;99.90
36670;DHT22;22662;47.412;9.742;2022-11-15T14:24:47;11.00;99.90
36670;DHT22;22662;47.412;9.742;2022-11-15T14:27:23;10.80;99.90
36670;DHT22;22662;47.412;9.742;2022-11-15T14:29:49;10.70;99.90
36670;DHT22;22662;47.412;9.742;2022-11-15T14:32:16;10.60;99.90
36670;DHT22;22662;47.412;9.742;2022-11-15T14:34:42;10.60;99.90
36670;DHT22;22662;47.412;9.742;2022-11-15T14:37:28;10.50;99.90
36670;DHT22;22662;47.412;9.742;2022-11-15T14:39:54;10.50;99.90
36670;DHT22;22662;47.412;9.742;2022-11-15T14:42:20;10.50;99.90
36670;DHT22;22662;47.412;9.742;2022-11-15T14:44:46;10.50;99.90
36670;DHT22;22662;47.412;9.742;2022-11-15T14:47:12;10.40;99.90
36670;DHT22;22662;47.412;9.742;2022-11-15T14:49:38;10.50;99.90
36670;DHT22;22662;47.412;9.742;2022-11-15T14:52:07;10.40;99.90
36670;DHT22;22662;47.412;9.742;2022-11-15T14:54:32;10.30;99.90
36670;DHT22;22662;47.412;9.742;2022-11-15T14:56:58;10.30;99.90
36670;DHT22;22662;47.412;9.742;2022-11-15T14:59:24;10.40;99.90
36670;DHT22;22662;47.412;9.742;2022-11-15T15:01:49;10.40;99.90
36670;DHT22;22662;47.412;9.742;2022-11-15T15:04:15;10.40;99.90
36670;DHT22;22662;47.412;9.742;2022-11-15T15:06:40;10.40;99.90
36670;DHT22;22662;47.412;9.742;2022-11-15T15:09:06;10.40;99.90
36670;DHT22;22662;47.412;9.742;2022-11-15T15:11:31;10.40;99.90
36670;DHT22;22662;47.412;9.742;2022-11-15T15:13:57;10.30;99.90
36670;DHT22;22662;47.412;9.742;2022-11-15T15:16:25;10.30;99.90
36670;DHT22;22662;47.412;9.742;2022-11-15T15:18:51;10.30;99.90
36670;DHT22;22662;47.412;9.742;2022-11-15T15:21:24;10.30;99.90
36670;DHT22;22662;47.412;9.742;2022-11-15T15:23:50;10.20;99.90
36670;DHT22;22662;47.412;9.742;2022-11-15T15:26:16;10.20;99.90
36670;DHT22;22662;47.412;9.742;2022-11-15T15:28:41;10.20;99.90
36670;DHT22;22662;47.412;9.742;2022-11-15T15:31:08;10.20;99.90
36670;DHT22;22662;47.412;9.742;2022-11-15T15:33:33;10.20;99.90
36670;DHT22;22662;47.412;9.742;2022-11-15T15:35:59;10.10;99.90
36670;DHT22;22662;47.412;9.742;2022-11-15T15:38:25;10.10;99.90
36670;DHT22;22662;47.412;9.742;2022-11-15T15:40:50;10.10;99.90
36670;DHT22;22662;47.412;9.742;2022-11-15T15:43:16;10.10;99.90
36670;DHT22;22662;47.412;9.742;2022-11-15T15:45:41;10.10;99.90
36670;DHT22;22662;47.412;9.742;2022-11-15T15:48:14;10.10;99.90
36670;DHT22;22662;47.412;9.742;2022-11-15T15:50:40;10.10;99.90
36670;DHT22;22662;47.412;9.742;2022-11-15T15:53:08;10.10;99.90
36670;DHT22;22662;47.412;9.742;2022-11-15T15:55:35;10.00;99.90
36670;DHT22;22662;47.412;9.742;2022-11-15T15:58:01;10.00;99.90
36670;DHT22;22662;47.412;9.742;2022-11-15T16:00:27;9.90;99.90
36670;DHT22;22662;47.412;9.742;2022-11-15T16:02:53;10.00;99.90
36670;DHT22;22662;47.412;9.742;2022-11-15T16:05:19;9.90;99.90
36670;DHT22;22662;47.412;9.742;2022-11-15T16:07:45;9.80;99.90
36670;DHT22;22662;47.412;9.742;2022-11-15T16:12:42;9.70;99.90
36670;DHT22;22662;47.412;9.742;2022-11-15T16:15:08;9.70;99.90
36670;DHT22;22662;47.412;9.742;2022-11-15T16:17:35;9.70;99.90
36670;DHT22;22662;47.412;9.742;2022-11-15T16:20:01;9.70;99.90
36670;DHT22;22662;47.412;9.742;2022-11-15T16:22:26;9.70;99.90
36670;DHT22;22662;47.412;9.742;2022-11-15T16:24:54;9.70;99.90
36670;DHT22;22662;47.412;9.742;2022-11-15T16:27:20;9.80;99.90
36670;DHT22;22662;47.412;9.742;2022-11-15T16:29:46;9.70;99.90
36670;DHT22;22662;47.412;9.742;2022-11-15T16:32:12;9.70;99.90
36670;DHT22;22662;47.412;9.742;2022-11-15T16:34:38;9.70;99.90
36670;DHT22;22662;47.412;9.742;2022-11-15T16:37:03;9.70;99.90
36670;DHT22;22662;47.412;9.742;2022-11-15T16:39:29;9.80;99.90
36670;DHT22;22662;47.412;9.742;2022-11-15T16:41:58;9.80;99.90
36670;DHT22;22662;47.412;9.742;2022-11-15T16:44:24;9.80;99.90
36670;DHT22;22662;47.412;9.742;2022-11-15T16:46:50;9.80;99.90
36670;DHT22;22662;47.412;9.742;2022-11-15T16:49:17;9.80;99.90
36670;DHT22;22662;47.412;9.742;2022-11-15T16:51:46;9.80;99.90
36670;DHT22;22662;47.412;9.742;2022-11-15T16:54:12;9.90;99.90
36670;DHT22;22662;47.412;9.742;2022-11-15T16:56:37;10.00;99.90
36670;DHT22;22662;47.412;9.742;2022-11-15T16:59:03;10.00;99.90
36670;DHT22;22662;47.412;9.742;2022-11-15T17:01:33;9.90;99.90
36670;DHT22;22662;47.412;9.742;2022-11-15T17:04:17;9.90;99.90
36670;DHT22;22662;47.412;9.742;2022-11-15T17:06:43;10.00;99.90
36670;DHT22;22662;47.412;9.742;2022-11-15T17:09:13;9.90;99.90
36670;DHT22;22662;47.412;9.742;2022-11-15T17:11:39;9.80;99.90
36670;DHT22;22662;47.412;9.742;2022-11-15T17:14:05;9.80;99.90
36670;DHT22;22662;47.412;9.742;2022-11-15T17:16:30;9.80;99.90
36670;DHT22;22662;47.412;9.742;2022-11-15T17:18:56;9.70;99.90
36670;DHT22;22662;47.412;9.742;2022-11-15T17:21:22;9.70;99.90
36670;DHT22;22662;47.412;9.742;2022-11-15T17:23:47;9.70;99.90
36670;DHT22;22662;47.412;9.742;2022-11-15T17:26:13;9.70;99.90
36670;DHT22;22662;47.412;9.742;2022-11-15T17:28:39;9.70;99.90
36670;DHT22;22662;47.412;9.742;2022-11-15T17:31:06;9.70;99.90
36670;DHT22;22662;47.412;9.742;2022-11-15T17:33:31;9.70;99.90
36670;DHT22;22662;47.412;9.742;2022-11-15T17:35:58;9.70;99.90
36670;DHT22;22662;47.412;9.742;2022-11-15T17:38:24;9.80;99.90
36670;DHT22;22662;47.412;9.742;2022-11-15T17:41:03;9.80;99.90
36670;DHT22;22662;47.412;9.742;2022-11-15T17:43:29;9.80;99.90
36670;DHT22;22662;47.412;9.742;2022-11-15T17:45:55;9.80;99.90
36670;DHT22;22662;47.412;9.742;2022-11-15T17:48:20;9.70;99.90
36670;DHT22;22662;47.412;9.742;2022-11-15T17:51:19;9.70;99.90
36670;DHT22;22662;47.412;9.742;2022-11-15T17:53:39;9.70;99.90
36670;DHT22;22662;47.412;9.742;2022-11-15T17:56:08;9.70;99.90
36670;DHT22;22662;47.412;9.742;2022-11-15T17:58:34;9.60;99.90
36670;DHT22;22662;47.412;9.742;2022-11-15T18:03:37;9.70;99.90
36670;DHT22;22662;47.412;9.742;2022-11-15T18:06:06;9.70;99.90
36670;DHT22;22662;47.412;9.742;2022-11-15T18:08:32;9.70;99.90
36670;DHT22;22662;47.412;9.742;2022-11-15T18:13:28;9.80;99.90